createdAt,value
2023-09-02T00:04:13.310Z,64.94
2023-09-02T00:09:16.610Z,66.47
2023-09-02T00:14:18.451Z,64.94
2023-09-02T00:19:20.136Z,64.18
2023-09-02T00:24:21.849Z,63.57
2023-09-02T00:29:23.502Z,63.79
2023-09-02T00:34:25.193Z,65.42
2023-09-02T00:39:27.099Z,66.42
2023-09-02T00:44:28.920Z,66.49
2023-09-02T00:49:33.290Z,66.50
2023-09-02T00:54:35.084Z,66.68
2023-09-02T00:59:36.909Z,64.57
2023-09-02T01:04:38.631Z,63.99
2023-09-02T01:09:40.441Z,63.46
2023-09-02T01:14:42.298Z,62.72
2023-09-02T01:19:45.947Z,63.83
2023-09-02T01:25:11.504Z,69.32
2023-09-02T01:30:16.319Z,66.92
2023-09-02T01:35:21.020Z,65.27
2023-09-02T01:40:27.708Z,65.37
2023-09-02T01:45:33.115Z,64.96
2023-09-02T01:50:35.651Z,64.91
2023-09-02T01:55:37.677Z,65.21
2023-09-02T02:00:42.549Z,64.22
2023-09-02T02:05:52.641Z,63.21
2023-09-02T02:10:57.275Z,63.40
2023-09-02T02:15:59.014Z,65.95
2023-09-02T02:21:03.787Z,68.76
2023-09-02T02:26:07.800Z,67.33
2023-09-02T02:31:10.170Z,64.21
2023-09-02T02:36:11.856Z,62.62
2023-09-02T02:41:13.559Z,61.96
2023-09-02T02:46:15.306Z,61.79
2023-09-02T02:51:17.040Z,62.78
2023-09-02T02:56:18.890Z,64.40
2023-09-02T03:01:20.660Z,65.28
2023-09-02T03:06:22.551Z,65.12
2023-09-02T03:11:24.280Z,65.53
2023-09-02T03:16:26.008Z,65.83
2023-09-02T03:21:27.660Z,65.91
2023-09-02T03:26:29.411Z,65.66
2023-09-02T03:31:31.214Z,62.62
2023-09-02T03:36:32.958Z,61.91
2023-09-02T03:41:38.669Z,63.12
2023-09-02T03:46:40.474Z,66.10
2023-09-02T03:51:43.928Z,67.65
2023-09-02T03:56:45.619Z,67.28
2023-09-02T04:01:47.405Z,63.68
2023-09-02T04:06:49.126Z,64.18
2023-09-02T04:11:50.840Z,64.74
2023-09-02T04:16:55.612Z,65.29
2023-09-02T04:21:57.324Z,63.32
2023-09-02T04:27:00.614Z,63.01
2023-09-02T04:32:02.430Z,64.28
2023-09-02T04:37:04.338Z,66.13
2023-09-02T04:42:06.403Z,66.09
2023-09-02T04:47:11.539Z,65.07
2023-09-02T04:52:13.227Z,65.63
2023-09-02T04:57:14.881Z,66.71
2023-09-02T05:02:16.580Z,64.21
2023-09-02T05:07:18.231Z,63.03
2023-09-02T05:12:19.978Z,63.93
2023-09-02T05:17:21.695Z,63.96
2023-09-02T05:22:23.733Z,66.95
2023-09-02T05:27:25.600Z,69.41
2023-09-02T05:32:27.427Z,67.07
2023-09-02T05:37:29.257Z,65.42
2023-09-02T05:42:31.024Z,66.81
2023-09-02T05:47:32.986Z,67.08
2023-09-02T05:52:34.795Z,65.43
2023-09-02T05:57:36.561Z,65.10
2023-09-02T06:02:38.363Z,65.33
2023-09-02T06:07:43.012Z,66.29
2023-09-02T06:12:44.753Z,65.98
2023-09-02T06:17:46.654Z,70.32
2023-09-02T06:22:48.378Z,67.86
2023-09-02T06:27:50.178Z,66.43
2023-09-02T06:32:52.405Z,62.93
2023-09-02T06:37:54.221Z,63.30
2023-09-02T06:42:55.994Z,60.96
2023-09-02T06:47:57.702Z,60.75
2023-09-02T06:52:59.455Z,61.78
2023-09-02T06:58:01.143Z,62.94
2023-09-02T07:03:03.211Z,63.14
2023-09-02T07:08:05.203Z,64.34
2023-09-02T07:13:06.949Z,62.78
2023-09-02T07:18:08.802Z,63.44
2023-09-02T07:23:10.503Z,62.61
2023-09-02T07:28:12.295Z,60.67
2023-09-02T07:33:14.127Z,59.27
2023-09-02T07:38:16.009Z,61.38
2023-09-02T07:43:18.020Z,61.51
2023-09-02T07:48:19.871Z,60.89
2023-09-02T07:53:21.854Z,61.96
2023-09-02T07:58:23.610Z,64.07
2023-09-02T08:03:26.177Z,61.79
2023-09-02T08:08:28.184Z,60.55
2023-09-02T08:13:29.924Z,57.18
2023-09-02T08:18:31.670Z,60.09
2023-09-02T08:23:33.431Z,60.04
2023-09-02T08:28:35.163Z,60.02
2023-09-02T08:33:37.063Z,59.08
2023-09-02T08:38:38.806Z,58.57
2023-09-02T08:43:41.766Z,61.73
2023-09-02T08:48:45.002Z,58.96
2023-09-02T08:53:47.563Z,59.22
2023-09-02T08:58:50.330Z,59.34
2023-09-02T09:03:56.372Z,60.52
2023-09-02T09:08:58.619Z,58.92
2023-09-02T09:14:03.180Z,59.00
2023-09-02T09:19:05.019Z,58.36
2023-09-02T09:24:12.359Z,57.28
2023-09-02T09:29:16.601Z,55.83
2023-09-02T09:34:18.293Z,56.09
2023-09-02T09:39:19.966Z,56.55
2023-09-02T09:44:21.769Z,54.93
2023-09-02T09:49:27.658Z,54.47
2023-09-02T09:54:35.433Z,54.54
2023-09-02T09:59:37.757Z,54.77
2023-09-02T10:04:39.494Z,53.32
2023-09-02T10:09:45.354Z,53.38
2023-09-02T10:14:49.002Z,54.39
2023-09-02T10:19:50.815Z,52.15
2023-09-02T10:25:20.489Z,53.28
2023-09-02T10:30:33.697Z,51.71
2023-09-02T10:35:42.433Z,52.13
2023-09-02T10:40:47.905Z,52.27
2023-09-02T10:45:50.181Z,52.91
2023-09-02T10:50:52.500Z,51.32
2023-09-02T10:56:02.085Z,51.64
2023-09-02T11:01:03.870Z,51.14
2023-09-02T11:06:07.502Z,50.69
2023-09-02T11:11:09.295Z,51.63
2023-09-02T11:16:17.071Z,52.01
2023-09-02T11:21:41.589Z,49.62
2023-09-02T11:26:56.720Z,53.03
2023-09-02T11:32:04.660Z,50.47
2023-09-02T11:37:07.041Z,51.91
2023-09-02T11:42:10.310Z,51.49
2023-09-02T11:47:15.472Z,49.19
2023-09-02T11:52:22.287Z,49.10
2023-09-02T11:57:24.064Z,50.43
2023-09-02T12:02:26.604Z,49.65
2023-09-02T12:07:28.667Z,48.25
2023-09-02T12:12:30.684Z,49.54
2023-09-02T12:17:32.904Z,48.60
2023-09-02T12:22:37.246Z,49.08
2023-09-02T12:27:41.772Z,48.44
2023-09-02T12:32:45.603Z,49.98
2023-09-02T12:37:59.962Z,48.88
2023-09-02T12:43:02.877Z,47.46
2023-09-02T12:48:05.345Z,46.91
2023-09-02T12:53:07.113Z,45.92
2023-09-02T12:58:08.976Z,45.43
2023-09-02T13:03:11.018Z,45.48
2023-09-02T13:08:14.133Z,45.37
2023-09-02T13:13:17.811Z,44.61
2023-09-02T13:18:19.788Z,44.75
2023-09-02T13:23:22.189Z,43.68
2023-09-02T13:28:29.323Z,43.44
2023-09-02T13:33:31.704Z,42.55
2023-09-02T13:38:38.390Z,41.41
2023-09-02T13:43:41.652Z,41.16
2023-09-02T13:48:45.390Z,42.70
2023-09-02T13:53:47.725Z,44.51
2023-09-02T13:58:52.600Z,42.13
2023-09-02T14:03:55.258Z,42.32
2023-09-02T14:09:01.781Z,41.79
2023-09-02T14:14:03.643Z,42.75
2023-09-02T14:19:06.568Z,42.21
2023-09-02T14:24:08.687Z,41.77
2023-09-02T14:29:11.200Z,40.89
2023-09-02T14:34:13.312Z,40.75
2023-09-02T14:39:16.225Z,41.12
2023-09-02T14:44:18.452Z,41.64
2023-09-02T14:49:20.709Z,42.80
2023-09-02T14:54:22.795Z,43.11
2023-09-02T14:59:25.584Z,43.23
2023-09-02T15:04:27.574Z,44.57
2023-09-02T15:09:32.166Z,43.05
2023-09-02T15:14:35.701Z,43.44
2023-09-02T15:19:39.352Z,44.02
2023-09-02T15:24:41.844Z,44.10
2023-09-02T15:29:43.870Z,44.76
2023-09-02T15:34:49.071Z,45.13
2023-09-02T15:39:55.901Z,45.58
2023-09-02T15:44:57.997Z,45.18
2023-09-02T15:50:00.227Z,45.03
2023-09-02T15:55:02.007Z,45.36
2023-09-02T16:00:04.332Z,44.12
2023-09-02T16:05:06.873Z,44.69
2023-09-02T16:10:08.905Z,45.29
2023-09-02T16:15:12.661Z,46.79
2023-09-02T16:20:15.171Z,48.40
2023-09-02T16:25:17.223Z,49.66
2023-09-02T16:30:19.878Z,49.80
2023-09-02T16:35:28.556Z,48.61
2023-09-02T16:40:30.971Z,48.95
2023-09-02T16:45:33.045Z,48.33
2023-09-02T16:50:35.194Z,49.58
2023-09-02T16:55:37.084Z,50.40
2023-09-02T17:00:39.277Z,51.48
2023-09-02T17:05:43.316Z,53.03
2023-09-02T17:10:45.753Z,53.53
2023-09-02T17:15:47.743Z,54.51
2023-09-02T17:20:50.798Z,53.63
2023-09-02T17:25:52.734Z,54.95
2023-09-02T17:31:04.219Z,54.81
2023-09-02T17:36:06.463Z,56.38
2023-09-02T17:41:08.865Z,55.04
2023-09-02T17:46:10.805Z,56.16
2023-09-02T17:51:13.313Z,56.43
2023-09-02T17:56:15.035Z,56.64
2023-09-02T18:01:17.270Z,56.85
2023-09-02T18:06:19.517Z,57.55
2023-09-02T18:11:21.890Z,58.16
2023-09-02T18:16:26.113Z,58.18
2023-09-02T18:21:28.058Z,58.51
2023-09-02T18:26:30.208Z,58.89
2023-09-02T18:31:33.197Z,59.10
2023-09-02T18:36:36.788Z,59.23
2023-09-02T18:41:42.293Z,59.94
2023-09-02T18:46:44.417Z,58.25
2023-09-02T18:51:48.639Z,58.94
2023-09-02T18:56:50.889Z,58.50
2023-09-02T19:01:52.945Z,59.71
2023-09-02T19:06:55.245Z,60.58
2023-09-02T19:11:57.495Z,60.64
2023-09-02T19:16:59.674Z,60.75
2023-09-02T19:22:01.430Z,59.93
2023-09-02T19:27:05.186Z,59.71
2023-09-02T19:32:07.419Z,61.14
2023-09-02T19:37:09.703Z,61.42
2023-09-02T19:42:11.733Z,61.31
2023-09-02T19:47:13.774Z,61.26
2023-09-02T19:52:15.598Z,61.08
2023-09-02T19:57:18.085Z,61.80
2023-09-02T20:02:20.225Z,63.47
2023-09-02T20:07:22.694Z,64.19
2023-09-02T20:12:27.853Z,65.20
2023-09-02T20:17:31.911Z,63.99
2023-09-02T20:22:34.520Z,61.70
2023-09-02T20:27:36.981Z,61.76
2023-09-02T20:32:39.008Z,62.71
2023-09-02T20:37:41.060Z,63.25
2023-09-02T20:42:43.196Z,65.13
2023-09-02T20:47:45.167Z,64.04
2023-09-02T20:52:47.526Z,64.60
2023-09-02T20:57:49.568Z,63.73
2023-09-02T21:02:55.609Z,63.57
2023-09-02T21:07:57.488Z,63.03
2023-09-02T21:12:59.234Z,63.05
2023-09-02T21:18:00.926Z,64.46
2023-09-02T21:23:02.644Z,66.28
2023-09-02T21:28:04.664Z,63.12
2023-09-02T21:33:06.383Z,63.62
2023-09-02T21:38:08.287Z,66.48
2023-09-02T21:43:10.083Z,64.67
2023-09-02T21:48:11.897Z,62.03
2023-09-02T21:53:13.662Z,63.50
2023-09-02T21:58:15.343Z,64.51
2023-09-02T22:03:17.189Z,64.75
2023-09-02T22:08:18.996Z,64.99
2023-09-02T22:13:20.954Z,64.87
2023-09-02T22:18:24.804Z,63.27
2023-09-02T22:23:29.164Z,64.22
2023-09-02T22:28:32.338Z,64.02
2023-09-02T22:33:35.538Z,62.36
2023-09-02T22:38:55.574Z,63.95
2023-09-02T22:43:58.696Z,67.08
2023-09-02T22:49:00.428Z,66.22
2023-09-02T22:54:02.078Z,63.22
2023-09-02T22:59:03.869Z,63.04
2023-09-02T23:04:05.813Z,62.39
2023-09-02T23:09:07.521Z,66.58
2023-09-02T23:14:09.200Z,66.91
2023-09-02T23:19:10.886Z,66.00
2023-09-02T23:24:12.552Z,68.05
2023-09-02T23:29:14.173Z,64.57
2023-09-02T23:34:16.389Z,62.59
2023-09-02T23:39:18.123Z,61.45
2023-09-02T23:44:19.876Z,61.39
2023-09-02T23:49:21.546Z,62.32
2023-09-02T23:54:26.520Z,66.73
2023-09-02T23:59:28.265Z,67.07
